Time;durP1;ratioP1;P1;durP2;ratioP2;P2;SDS_P1;SDS_P2;PMS_P1;PMS_P2;Temp;Humidity;BMP_temperature;BMP_pressure;BME280_temperature;BME280_humidity;BME280_pressure;Samples;Min_cycle;Max_cycle;Signal;HPM_P1;HPM_P2
2022/02/19 00:01:47;;;;;;;4.60;0.83;;;7.70;99.90;;;;;;4954535;29;20202;-73
2022/02/19 00:04:12;;;;;;;5.53;1.20;;;7.70;99.90;;;;;;4954402;29;20178;-73
2022/02/19 00:06:38;;;;;;;4.80;1.03;;;7.60;99.90;;;;;;4954391;29;20198;-73
2022/02/19 00:09:05;;;;;;;5.30;0.90;;;7.60;99.90;;;;;;4953805;28;20182;-74
2022/02/19 00:11:31;;;;;;;2.50;0.90;;;7.60;99.90;;;;;;4954418;28;20549;-73
2022/02/19 00:13:56;;;;;;;3.73;1.03;;;7.60;99.90;;;;;;4954538;28;20839;-74
2022/02/19 00:16:22;;;;;;;9.90;1.47;;;7.60;99.90;;;;;;4954171;29;20171;-72
2022/02/19 00:18:48;;;;;;;6.30;1.33;;;7.60;99.90;;;;;;4954182;29;20215;-73
2022/02/19 00:21:14;;;;;;;4.60;1.87;;;7.60;99.90;;;;;;4954153;28;20251;-72
2022/02/19 00:23:41;;;;;;;5.70;1.17;;;7.60;99.90;;;;;;4954040;29;20412;-73
2022/02/19 00:26:06;;;;;;;6.70;1.30;;;7.50;99.90;;;;;;4954161;28;20185;-73
2022/02/19 00:28:32;;;;;;;10.10;1.23;;;7.50;99.90;;;;;;4954273;28;20418;-73
2022/02/19 00:30:58;;;;;;;5.00;1.40;;;7.50;99.90;;;;;;4953816;28;20349;-73
2022/02/19 00:33:24;;;;;;;2.53;0.70;;;7.60;99.90;;;;;;4953776;28;20446;-73
2022/02/19 00:35:50;;;;;;;4.63;1.10;;;7.60;99.90;;;;;;4954095;28;20461;-73
2022/02/19 00:38:17;;;;;;;5.70;1.00;;;7.60;99.90;;;;;;4954054;28;20308;-73
2022/02/19 00:40:47;;;;;;;14.27;1.23;;;7.60;99.90;;;;;;4953600;28;20418;-72
2022/02/19 00:43:13;;;;;;;7.33;1.10;;;7.60;99.90;;;;;;4953758;28;20425;-73
2022/02/19 00:45:39;;;;;;;7.87;1.07;;;7.60;99.90;;;;;;4953892;28;20421;-73
2022/02/19 00:48:05;;;;;;;16.50;1.83;;;7.60;99.90;;;;;;4953740;29;20939;-73
2022/02/19 00:50:31;;;;;;;4.40;1.20;;;7.60;99.90;;;;;;4952471;29;20263;-73
2022/02/19 00:52:57;;;;;;;9.93;1.33;;;7.60;99.90;;;;;;4953464;29;20838;-73
2022/02/19 00:55:23;;;;;;;5.87;1.17;;;7.60;99.90;;;;;;4953648;28;20178;-73
2022/02/19 00:57:49;;;;;;;4.70;1.70;;;7.60;99.90;;;;;;4953686;28;20422;-73
2022/02/19 05:32:53;;;;;;;3.23;0.73;;;5.20;99.90;;;;;;5035013;23;20576;-72
2022/02/19 05:35:19;;;;;;;6.03;1.43;;;5.20;99.90;;;;;;4956129;28;20433;-73
2022/02/19 05:37:44;;;;;;;8.83;1.53;;;5.20;99.90;;;;;;4953205;28;20175;-75
2022/02/19 05:40:10;;;;;;;4.00;0.83;;;5.20;99.90;;;;;;4956583;28;20181;-71
2022/02/19 05:42:35;;;;;;;5.20;1.37;;;5.20;99.90;;;;;;4963728;28;20694;-73
2022/02/19 05:45:01;;;;;;;7.10;1.33;;;5.20;99.90;;;;;;4972072;28;20178;-72
2022/02/19 05:47:27;;;;;;;8.13;1.20;;;5.20;99.90;;;;;;4972697;28;20562;-73
2022/02/19 05:49:52;;;;;;;2.23;1.10;;;5.10;99.90;;;;;;4972319;28;20179;-73
2022/02/19 05:52:18;;;;;;;10.67;1.50;;;5.20;99.90;;;;;;4971981;28;20721;-73
2022/02/19 05:54:44;;;;;;;9.30;2.20;;;5.10;99.90;;;;;;4972287;28;20706;-75
2022/02/19 05:57:10;;;;;;;10.80;1.03;;;5.10;99.90;;;;;;4972182;28;20624;-74
2022/02/19 05:59:36;;;;;;;1.67;1.23;;;5.10;99.90;;;;;;4972318;28;20890;-72
2022/02/19 06:02:02;;;;;;;4.73;0.97;;;5.10;99.90;;;;;;4972130;28;20440;-72
2022/02/19 06:04:28;;;;;;;7.20;1.27;;;5.00;99.90;;;;;;4971918;28;20654;-72
2022/02/19 06:06:54;;;;;;;8.73;2.30;;;5.00;99.90;;;;;;4974395;28;20188;-73
2022/02/19 06:09:19;;;;;;;8.63;1.10;;;5.00;99.90;;;;;;4975811;28;20609;-72
2022/02/19 06:11:45;;;;;;;5.63;1.50;;;5.00;99.90;;;;;;4975654;28;20208;-74
2022/02/19 06:14:11;;;;;;;6.30;1.50;;;5.00;99.90;;;;;;4975460;28;20208;-71
2022/02/19 06:16:36;;;;;;;5.10;1.33;;;4.90;99.90;;;;;;4975629;28;20449;-72
2022/02/19 06:19:02;;;;;;;2.30;1.00;;;4.90;99.90;;;;;;4975645;28;20175;-73
2022/02/19 06:21:28;;;;;;;8.10;1.23;;;4.90;99.90;;;;;;4975438;28;20263;-71
2022/02/19 06:23:54;;;;;;;4.70;1.30;;;4.90;99.90;;;;;;4975671;28;20425;-71
2022/02/19 06:26:20;;;;;;;9.93;1.90;;;4.90;99.90;;;;;;4975527;28;20189;-72
2022/02/19 06:28:45;;;;;;;9.17;1.80;;;4.90;99.90;;;;;;4975618;28;20556;-72
2022/02/19 06:31:11;;;;;;;7.70;0.80;;;4.80;99.90;;;;;;4974915;28;20511;-71
2022/02/19 06:33:36;;;;;;;3.20;0.70;;;4.80;99.90;;;;;;4975326;28;20246;-71
2022/02/19 06:36:02;;;;;;;2.90;1.10;;;4.90;99.90;;;;;;4975377;28;20189;-71
2022/02/19 06:38:27;;;;;;;11.47;1.87;;;4.90;99.90;;;;;;4975236;28;20257;-72
2022/02/19 06:40:53;;;;;;;11.23;1.30;;;4.90;99.90;;;;;;4974958;28;20289;-73
2022/02/19 06:43:19;;;;;;;4.13;0.90;;;4.90;99.90;;;;;;4974756;28;20181;-72
2022/02/19 06:45:44;;;;;;;4.50;1.10;;;4.90;99.90;;;;;;4970282;28;20190;-71
2022/02/19 06:48:10;;;;;;;6.70;1.37;;;4.90;99.90;;;;;;4965043;28;20180;-71
2022/02/19 06:50:35;;;;;;;7.03;1.10;;;4.90;99.90;;;;;;4966471;28;20244;-73
2022/02/19 06:53:01;;;;;;;3.70;1.00;;;4.90;99.90;;;;;;4963078;28;20194;-71
2022/02/19 06:55:26;;;;;;;5.33;1.77;;;4.90;99.90;;;;;;4966519;28;20266;-72
2022/02/19 06:57:52;;;;;;;6.20;0.80;;;4.90;99.90;;;;;;4972070;28;20178;-72
2022/02/19 07:00:18;;;;;;;9.43;2.10;;;4.90;99.90;;;;;;4958228;28;20198;-71
2022/02/19 07:02:44;;;;;;;3.90;1.10;;;4.90;99.90;;;;;;4957460;28;20613;-69
2022/02/19 07:05:10;;;;;;;8.00;1.53;;;4.90;99.90;;;;;;4955537;28;20426;-72
2022/02/19 07:07:36;;;;;;;3.90;1.50;;;4.90;99.90;;;;;;4955764;28;20427;-71
2022/02/19 07:10:06;;;;;;;5.87;1.07;;;4.90;99.90;;;;;;4955120;28;20182;-70
2022/02/19 07:12:32;;;;;;;1.97;0.97;;;4.90;99.90;;;;;;4954137;28;20189;-70
2022/02/19 07:14:58;;;;;;;9.23;1.37;;;5.00;99.90;;;;;;4962697;28;20946;-71
2022/02/19 07:17:23;;;;;;;3.67;1.20;;;5.10;99.90;;;;;;4974095;28;20454;-71
2022/02/19 07:19:49;;;;;;;7.03;1.20;;;5.20;99.90;;;;;;4973960;28;20227;-70
2022/02/19 07:22:14;;;;;;;7.90;1.10;;;5.30;99.90;;;;;;4973538;28;20253;-71
2022/02/19 07:24:40;;;;;;;9.90;0.90;;;5.30;99.90;;;;;;4973568;28;20777;-72
2022/02/19 07:27:06;;;;;;;5.60;1.37;;;5.50;99.90;;;;;;4973750;28;20221;-70
2022/02/19 07:29:31;;;;;;;3.73;0.90;;;5.70;99.90;;;;;;4973896;28;20231;-71
2022/02/19 07:31:57;;;;;;;6.20;1.33;;;6.30;99.90;;;;;;4973658;28;20853;-71
2022/02/19 07:34:22;;;;;;;7.80;1.10;;;7.30;99.90;;;;;;4973573;28;20270;-71
2022/02/19 07:36:48;;;;;;;9.40;1.70;;;7.60;99.90;;;;;;4974213;28;20194;-71
2022/02/19 07:39:13;;;;;;;5.47;1.13;;;7.70;99.90;;;;;;4973738;28;20284;-71
2022/02/19 07:41:39;;;;;;;4.50;1.27;;;7.60;99.90;;;;;;4973607;28;20222;-72
2022/02/19 07:44:05;;;;;;;7.97;1.40;;;8.00;99.90;;;;;;4973583;28;20657;-71
2022/02/19 07:46:31;;;;;;;9.33;1.10;;;8.30;99.90;;;;;;4973634;28;20214;-71
2022/02/19 07:58:17;;;;;;;8.47;1.60;;;8.80;99.90;;;;;;4973744;28;20472;-71
2022/02/19 07:59:55;;;;;;;4.80;1.37;;;13.20;99.90;;;;;;4973393;28;20542;-70
2022/02/19 08:02:20;;;;;;;4.00;1.50;;;13.60;99.90;;;;;;4973131;28;21015;-71
2022/02/19 08:04:46;;;;;;;10.50;1.27;;;13.70;99.90;;;;;;4973133;28;20212;-71
2022/02/19 08:07:12;;;;;;;6.80;1.70;;;13.70;99.90;;;;;;4973203;28;20291;-71
2022/02/19 08:09:37;;;;;;;8.43;1.53;;;13.20;99.90;;;;;;4973119;28;20215;-71
2022/02/19 08:12:03;;;;;;;4.53;1.43;;;13.00;99.90;;;;;;4972955;28;20494;-71
2022/02/19 08:14:29;;;;;;;4.10;1.17;;;12.30;99.90;;;;;;4972940;28;20248;-70
2022/02/19 08:16:54;;;;;;;4.90;1.40;;;12.00;99.90;;;;;;4973300;28;20238;-71
2022/02/19 08:19:20;;;;;;;3.83;1.10;;;11.40;99.90;;;;;;4973041;28;20221;-71
2022/02/19 08:21:45;;;;;;;10.13;1.80;;;11.30;99.90;;;;;;4972952;28;20769;-71
2022/02/19 08:24:11;;;;;;;10.07;1.30;;;11.00;99.90;;;;;;4973060;28;20199;-69
2022/02/19 08:26:36;;;;;;;6.80;1.60;;;10.50;99.90;;;;;;4972742;28;20269;-71
2022/02/19 08:29:04;;;;;;;7.67;1.37;;;10.30;99.90;;;;;;4959736;28;20210;-71
2022/02/19 08:31:29;;;;;;;2.70;1.10;;;10.10;99.90;;;;;;4960289;28;20789;-71
2022/02/19 08:33:55;;;;;;;3.40;1.20;;;10.00;99.90;;;;;;4972812;28;20410;-71
2022/02/19 08:36:20;;;;;;;8.90;1.13;;;10.20;99.90;;;;;;4971179;28;20216;-69
2022/02/19 08:38:46;;;;;;;4.87;1.30;;;10.40;99.90;;;;;;4965164;28;20269;-69
2022/02/19 08:41:12;;;;;;;8.23;1.20;;;10.50;99.90;;;;;;4953077;28;20222;-71
2022/02/19 08:43:37;;;;;;;3.37;1.00;;;10.30;99.90;;;;;;4953225;29;20268;-70
2022/02/19 08:46:03;;;;;;;9.10;1.10;;;10.60;99.90;;;;;;4953304;28;20273;-70
2022/02/19 08:48:28;;;;;;;7.90;1.40;;;10.60;99.90;;;;;;4953506;29;20209;-69
2022/02/19 08:50:54;;;;;;;3.53;0.97;;;10.50;99.90;;;;;;4953182;28;20299;-71
2022/02/19 08:53:23;;;;;;;5.80;1.50;;;10.30;99.90;;;;;;4952882;29;20205;-71
2022/02/19 08:55:49;;;;;;;8.70;2.07;;;10.30;99.90;;;;;;4953056;28;20211;-71
2022/02/19 08:58:15;;;;;;;4.43;1.27;;;9.90;99.90;;;;;;4958430;28;20888;-72
2022/02/19 09:00:41;;;;;;;9.77;1.13;;;9.70;99.90;;;;;;4967486;28;20538;-71
2022/02/19 09:03:06;;;;;;;7.83;0.90;;;9.90;99.90;;;;;;4952896;28;20202;-71
2022/02/19 09:05:32;;;;;;;11.67;2.63;;;10.20;99.90;;;;;;4952874;28;20217;-71
2022/02/19 09:07:57;;;;;;;8.47;1.10;;;10.40;99.90;;;;;;4953204;28;20203;-71
2022/02/19 09:10:23;;;;;;;10.40;1.40;;;10.80;99.90;;;;;;4953074;28;20227;-71
2022/02/19 09:12:49;;;;;;;8.60;1.87;;;10.50;99.90;;;;;;4953075;28;20242;-70
2022/02/19 09:15:17;;;;;;;4.57;1.10;;;10.70;99.90;;;;;;4953215;28;20321;-71
2022/02/19 09:17:42;;;;;;;11.13;1.60;;;10.90;99.90;;;;;;4952950;28;20532;-71
2022/02/19 09:20:10;;;;;;;1.83;0.90;;;10.70;99.90;;;;;;4953109;28;20438;-71
2022/02/19 09:22:37;;;;;;;8.70;1.70;;;10.60;99.90;;;;;;4952828;28;20228;-70
2022/02/19 09:25:04;;;;;;;6.10;1.27;;;10.60;99.90;;;;;;4953065;28;20585;-71
2022/02/19 09:27:29;;;;;;;5.33;1.23;;;10.70;99.90;;;;;;4953622;28;20443;-71
2022/02/19 09:29:55;;;;;;;2.43;0.87;;;10.90;99.90;;;;;;4973593;28;20651;-72
2022/02/19 09:32:20;;;;;;;5.30;1.57;;;11.00;99.90;;;;;;4973226;28;20229;-71
2022/02/19 09:34:46;;;;;;;3.37;1.07;;;11.10;99.90;;;;;;4972186;28;20214;-72
2022/02/19 09:37:11;;;;;;;2.77;1.43;;;11.20;99.90;;;;;;4973233;28;20514;-70
2022/02/19 09:39:37;;;;;;;5.53;1.60;;;11.00;99.90;;;;;;4973108;28;20209;-71
2022/02/19 09:42:03;;;;;;;7.73;1.30;;;11.20;99.90;;;;;;4975321;28;20214;-69
2022/02/19 09:44:29;;;;;;;4.30;1.80;;;11.50;99.90;;;;;;4976283;28;20589;-70
2022/02/19 09:46:56;;;;;;;7.60;1.53;;;11.40;99.90;;;;;;4976142;28;20458;-71
2022/02/19 09:49:22;;;;;;;4.60;1.00;;;11.50;99.90;;;;;;4976352;28;20442;-71
2022/02/19 09:51:48;;;;;;;12.13;2.80;;;12.00;99.90;;;;;;4975058;28;20577;-71
2022/02/19 09:54:13;;;;;;;5.13;1.73;;;12.00;99.90;;;;;;4975854;28;20207;-72
2022/02/19 09:56:39;;;;;;;5.57;1.17;;;11.90;99.90;;;;;;4975595;28;20211;-67
2022/02/19 09:59:11;;;;;;;8.80;1.73;;;11.30;99.90;;;;;;4975540;28;20320;-70
2022/02/19 10:01:37;;;;;;;5.17;2.10;;;11.00;99.90;;;;;;4975321;28;20233;-68
2022/02/19 10:04:04;;;;;;;6.83;1.40;;;10.80;99.90;;;;;;4975612;28;20808;-71
2022/02/19 10:06:31;;;;;;;1.73;1.13;;;11.00;99.90;;;;;;4967712;28;20767;-70
2022/02/19 10:09:19;;;;;;;3.50;1.57;;;11.40;99.90;;;;;;4982322;28;20458;-70
2022/02/19 10:11:46;;;;;;;3.67;1.20;;;11.40;99.90;;;;;;4971537;28;20503;-71
2022/02/19 10:14:25;;;;;;;6.10;1.10;;;11.80;99.90;;;;;;4970148;28;20470;-70
2022/02/19 10:17:13;;;;;;;7.10;1.10;;;11.60;99.90;;;;;;4920310;28;21015;-68
2022/02/19 10:19:56;;;;;;;1.70;1.03;;;11.50;99.90;;;;;;4975123;28;20470;-69
2022/02/19 10:22:44;;;;;;;6.00;1.60;;;11.30;99.90;;;;;;4975268;28;20553;-71
2022/02/19 10:25:21;;;;;;;4.30;1.17;;;11.60;99.90;;;;;;4974189;28;20474;-71
2022/02/19 10:27:51;;;;;;;4.13;1.40;;;12.00;99.90;;;;;;4974829;28;20458;-69
2022/02/19 10:30:21;;;;;;;6.73;2.17;;;12.10;99.90;;;;;;4975477;28;20489;-70
2022/02/19 10:32:50;;;;;;;9.90;1.20;;;12.10;99.90;;;;;;4974421;28;20475;-69
2022/02/19 10:35:16;;;;;;;6.40;1.10;;;12.40;99.90;;;;;;4975096;28;20447;-71
2022/02/19 10:37:51;;;;;;;2.63;0.87;;;12.20;99.90;;;;;;4974796;28;20466;-70
2022/02/19 10:40:31;;;;;;;2.67;0.80;;;12.20;99.90;;;;;;4975036;28;20961;-70
2022/02/19 10:42:57;;;;;;;1.60;1.00;;;12.20;99.90;;;;;;4974521;28;20442;-70
2022/02/19 10:45:24;;;;;;;6.00;1.03;;;11.80;99.90;;;;;;4975099;28;20478;-70
2022/02/19 10:47:51;;;;;;;6.07;1.40;;;11.80;99.90;;;;;;4974773;28;20542;-69
2022/02/19 10:50:18;;;;;;;5.60;1.80;;;11.90;99.90;;;;;;4974848;28;20435;-70
2022/02/19 10:52:51;;;;;;;3.83;1.13;;;11.20;99.90;;;;;;4973735;28;20462;-70
2022/02/19 10:55:19;;;;;;;4.87;1.10;;;10.90;99.90;;;;;;4975074;28;20542;-70
2022/02/19 10:57:46;;;;;;;4.47;1.20;;;11.10;99.90;;;;;;4974395;28;20461;-70
2022/02/19 11:00:16;;;;;;;5.40;1.03;;;11.50;99.90;;;;;;4974797;28;20482;-70
2022/02/19 11:02:43;;;;;;;3.90;1.67;;;11.90;99.90;;;;;;4974248;28;20458;-69
2022/02/19 11:05:10;;;;;;;4.87;1.00;;;12.10;99.90;;;;;;4974460;28;20824;-71
2022/02/19 11:07:37;;;;;;;4.13;1.77;;;12.00;99.90;;;;;;4974235;28;20561;-71
2022/02/19 11:10:05;;;;;;;7.50;1.93;;;11.70;99.90;;;;;;4974753;28;20454;-69
2022/02/19 11:12:31;;;;;;;4.13;1.77;;;11.80;99.90;;;;;;4974345;28;20548;-71
2022/02/19 11:14:57;;;;;;;7.33;2.67;;;11.70;99.90;;;;;;4973218;28;20553;-70
2022/02/19 11:17:24;;;;;;;9.33;1.67;;;11.40;99.90;;;;;;4974393;28;20220;-70
2022/02/19 11:19:49;;;;;;;6.00;2.30;;;11.30;99.90;;;;;;4974352;28;20455;-70
2022/02/19 11:22:18;;;;;;;3.37;1.60;;;11.20;99.90;;;;;;4974356;28;20569;-71
2022/02/19 11:24:45;;;;;;;5.30;2.30;;;11.20;99.90;;;;;;4974300;28;20538;-70
2022/02/19 11:27:12;;;;;;;7.23;2.50;;;11.20;99.90;;;;;;4974350;28;20425;-70
2022/02/19 11:29:39;;;;;;;4.07;2.20;;;10.90;99.90;;;;;;4974672;28;20422;-68
2022/02/19 11:32:05;;;;;;;4.70;2.43;;;10.90;99.90;;;;;;4974102;28;21041;-70
2022/02/19 11:34:31;;;;;;;5.50;2.10;;;10.50;99.90;;;;;;4974319;28;20440;-70
2022/02/19 11:37:13;;;;;;;4.03;1.90;;;10.50;99.90;;;;;;4966775;28;20474;-71
2022/02/19 11:39:59;;;;;;;7.27;3.83;;;10.60;99.90;;;;;;4969799;28;20229;-69
2022/02/19 11:42:36;;;;;;;8.50;1.70;;;10.50;99.90;;;;;;4973749;28;20468;-71
2022/02/19 11:45:19;;;;;;;13.00;4.50;;;10.30;99.90;;;;;;4973546;28;20479;-71
2022/02/19 11:47:46;;;;;;;8.13;3.33;;;10.20;99.90;;;;;;4973253;28;20962;-71
2022/02/19 11:50:29;;;;;;;4.97;2.70;;;10.40;99.90;;;;;;4973373;28;20534;-71
2022/02/19 11:53:13;;;;;;;7.97;1.87;;;10.60;99.90;;;;;;4972970;28;20451;-71
2022/02/19 11:55:40;;;;;;;13.53;6.97;;;10.90;99.90;;;;;;4973521;28;20450;-69
2022/02/19 11:58:08;;;;;;;3.13;1.40;;;11.00;99.90;;;;;;4973580;28;20450;-70
2022/02/19 12:00:44;;;;;;;1.83;1.30;;;11.10;99.90;;;;;;4973299;28;20818;-70
2022/02/19 12:03:21;;;;;;;4.43;1.03;;;11.10;99.90;;;;;;4972641;28;20454;-71
2022/02/19 12:06:05;;;;;;;3.93;0.80;;;11.20;99.90;;;;;;4973349;28;20446;-70
2022/02/19 12:08:46;;;;;;;5.33;1.00;;;11.10;99.90;;;;;;4973372;28;20470;-69
2022/02/19 12:11:12;;;;;;;2.03;1.03;;;10.50;99.90;;;;;;4973260;28;20552;-70
2022/02/19 12:13:54;;;;;;;4.30;1.30;;;10.10;99.90;;;;;;4972918;28;20517;-69
2022/02/19 12:16:29;;;;;;;3.60;0.77;;;9.60;99.90;;;;;;4973244;28;20450;-70
2022/02/19 12:18:59;;;;;;;2.60;1.00;;;9.50;99.90;;;;;;4972918;28;20564;-70
2022/02/19 12:21:36;;;;;;;8.60;1.10;;;9.40;99.90;;;;;;4972912;28;20804;-70
2022/02/19 12:24:10;;;;;;;4.73;0.83;;;9.60;99.90;;;;;;4973031;28;20487;-71
2022/02/19 12:26:54;;;;;;;4.37;0.90;;;9.70;99.90;;;;;;4972967;28;20453;-69
2022/02/19 12:29:24;;;;;;;3.60;1.23;;;9.60;99.90;;;;;;4973058;28;20985;-71
2022/02/19 12:32:04;;;;;;;2.63;1.00;;;9.80;99.90;;;;;;4972489;28;20484;-71
2022/02/19 12:34:36;;;;;;;2.20;1.20;;;10.00;99.90;;;;;;4972644;28;20458;-71
2022/02/19 12:37:05;;;;;;;3.90;0.90;;;10.00;99.90;;;;;;4972788;28;20474;-70
2022/02/19 12:39:35;;;;;;;4.20;1.70;;;10.10;99.90;;;;;;4972634;28;20511;-70
2022/02/19 12:42:01;;;;;;;2.60;1.90;;;10.10;99.90;;;;;;4972703;28;20465;-71
2022/02/19 12:44:28;;;;;;;5.20;1.40;;;10.10;99.90;;;;;;4972651;28;20883;-71
2022/02/19 12:46:55;;;;;;;1.23;0.87;;;10.10;99.90;;;;;;4972770;28;20218;-72
2022/02/19 12:49:23;;;;;;;3.77;0.90;;;10.30;99.90;;;;;;4972634;28;20492;-72
2022/02/19 12:51:58;;;;;;;2.27;0.90;;;10.40;99.90;;;;;;4972095;28;20485;-72
2022/02/19 12:54:40;;;;;;;3.27;1.00;;;10.30;99.90;;;;;;4972414;28;20457;-71
2022/02/19 12:57:19;;;;;;;2.37;1.13;;;10.20;99.90;;;;;;4972652;28;20479;-72
2022/02/19 12:59:45;;;;;;;3.10;0.73;;;10.40;99.90;;;;;;4972448;28;20824;-71
2022/02/19 13:02:15;;;;;;;1.37;0.90;;;10.30;99.90;;;;;;4972238;28;20459;-72
2022/02/19 13:04:42;;;;;;;2.67;1.10;;;10.30;99.90;;;;;;4972170;28;20504;-70
2022/02/19 13:07:09;;;;;;;5.10;3.03;;;10.30;99.90;;;;;;4972379;28;20442;-73
2022/02/19 13:09:35;;;;;;;2.50;1.07;;;10.30;99.90;;;;;;4972880;28;20556;-71
2022/02/19 13:12:03;;;;;;;2.60;0.83;;;10.40;99.90;;;;;;4972526;28;21058;-71
2022/02/19 13:14:31;;;;;;;5.47;1.20;;;10.40;99.90;;;;;;4972299;28;20679;-71
2022/02/19 13:16:56;;;;;;;2.90;0.80;;;10.30;99.90;;;;;;4972098;28;20465;-72
2022/02/19 13:19:22;;;;;;;1.07;0.70;;;10.40;99.90;;;;;;4972212;28;20446;-71
2022/02/19 13:21:58;;;;;;;5.27;0.80;;;10.30;99.90;;;;;;4971881;28;20306;-71
2022/02/19 13:24:23;;;;;;;2.03;0.90;;;10.00;99.90;;;;;;4972114;28;20636;-70
2022/02/19 13:26:50;;;;;;;2.07;0.73;;;9.80;99.90;;;;;;4972162;28;20438;-70
2022/02/19 13:29:23;;;;;;;1.10;0.70;;;9.80;99.90;;;;;;4972360;28;20272;-70
2022/02/19 13:31:49;;;;;;;5.40;0.70;;;9.70;99.90;;;;;;4971963;28;21011;-70
2022/02/19 13:34:16;;;;;;;2.30;0.70;;;9.70;99.90;;;;;;4972192;28;20456;-71
2022/02/19 13:36:42;;;;;;;1.37;0.70;;;9.70;99.90;;;;;;4972386;28;20594;-71
2022/02/19 13:39:15;;;;;;;4.97;0.70;;;9.50;99.90;;;;;;4972332;28;20452;-72
2022/02/19 13:41:51;;;;;;;5.83;0.90;;;9.50;99.90;;;;;;4972093;28;20213;-70
2022/02/19 13:44:17;;;;;;;4.40;0.70;;;9.70;99.90;;;;;;4971999;28;20489;-70
2022/02/19 13:46:42;;;;;;;3.10;0.70;;;9.60;99.90;;;;;;4971963;28;20469;-71
2022/02/19 13:49:08;;;;;;;2.87;0.80;;;9.60;99.90;;;;;;4972184;28;20689;-70
2022/02/19 13:51:34;;;;;;;1.20;1.00;;;9.70;99.90;;;;;;4971789;28;20212;-71
2022/02/19 13:54:18;;;;;;;1.83;0.87;;;9.60;99.90;;;;;;4971554;28;20213;-70
2022/02/19 13:56:44;;;;;;;1.53;0.80;;;9.60;99.90;;;;;;4971905;28;20233;-71
2022/02/19 13:59:18;;;;;;;1.90;0.67;;;9.70;99.90;;;;;;4972072;28;20548;-71
2022/02/19 14:01:45;;;;;;;1.80;0.60;;;9.60;99.90;;;;;;4971913;28;20443;-71
2022/02/19 14:04:10;;;;;;;0.90;0.60;;;9.50;99.90;;;;;;4971697;28;20981;-71
2022/02/19 14:06:47;;;;;;;3.80;1.00;;;9.50;99.90;;;;;;4971956;28;20452;-71
2022/02/19 14:09:22;;;;;;;1.73;0.60;;;9.60;99.90;;;;;;4971911;28;20214;-71
2022/02/19 14:11:55;;;;;;;5.43;0.97;;;9.50;99.90;;;;;;4971637;28;20473;-72
2022/02/19 14:14:29;;;;;;;1.47;0.70;;;9.60;99.90;;;;;;4971719;28;20521;-71
2022/02/19 14:17:03;;;;;;;2.57;0.70;;;9.60;99.90;;;;;;4971757;28;20433;-70
2022/02/19 14:19:29;;;;;;;0.93;0.80;;;9.60;99.90;;;;;;4971545;28;20444;-70
2022/02/19 14:22:00;;;;;;;2.03;0.60;;;9.40;99.90;;;;;;4971650;28;20522;-71
2022/02/19 14:24:26;;;;;;;2.37;0.60;;;9.40;99.90;;;;;;4971265;28;20458;-71
2022/02/19 14:27:12;;;;;;;1.23;0.80;;;9.30;99.90;;;;;;4972410;28;20810;-70
2022/02/19 14:29:39;;;;;;;3.57;1.13;;;9.40;99.90;;;;;;4974971;28;20217;-71
2022/02/19 14:32:06;;;;;;;1.47;0.60;;;9.40;99.90;;;;;;4974925;28;20481;-70
2022/02/19 14:34:32;;;;;;;0.73;0.50;;;9.40;99.90;;;;;;4974894;28;20476;-72
2022/02/19 14:36:57;;;;;;;4.00;0.73;;;9.40;99.90;;;;;;4975048;28;20734;-72
2022/02/19 14:39:23;;;;;;;1.97;1.20;;;9.30;99.90;;;;;;4975095;28;20228;-71
2022/02/19 14:41:48;;;;;;;5.80;1.27;;;9.30;99.90;;;;;;4974735;28;20236;-71
2022/02/19 14:44:14;;;;;;;2.50;0.80;;;9.20;99.90;;;;;;4974645;28;20204;-71
2022/02/19 14:46:39;;;;;;;4.10;1.10;;;9.30;99.90;;;;;;4974746;28;20261;-69
2022/02/19 14:49:05;;;;;;;1.97;0.50;;;9.30;99.90;;;;;;4975003;28;20201;-71
2022/02/19 14:51:30;;;;;;;2.33;0.63;;;9.30;99.90;;;;;;4974423;28;20220;-71
2022/02/19 14:53:56;;;;;;;1.63;1.00;;;9.20;99.90;;;;;;4974429;28;20208;-70
2022/02/19 14:56:21;;;;;;;1.17;0.70;;;9.20;99.90;;;;;;4974538;28;20722;-70
2022/02/19 14:58:47;;;;;;;1.90;0.60;;;9.10;99.90;;;;;;4974445;28;20196;-71
2022/02/19 15:01:13;;;;;;;3.83;0.90;;;9.10;99.90;;;;;;4974621;28;20216;-71
2022/02/19 15:03:38;;;;;;;3.20;0.80;;;9.00;99.90;;;;;;4974258;28;20204;-70
2022/02/19 15:06:04;;;;;;;3.60;0.50;;;9.00;99.90;;;;;;4974861;28;20225;-71
2022/02/19 15:08:29;;;;;;;2.30;0.83;;;9.00;99.90;;;;;;4974829;28;20261;-71
2022/02/19 15:10:55;;;;;;;3.47;1.07;;;9.00;99.90;;;;;;4974032;28;20275;-71
2022/02/19 15:13:20;;;;;;;1.70;0.60;;;9.00;99.90;;;;;;4974328;28;20690;-71
2022/02/19 15:15:47;;;;;;;2.77;0.80;;;9.00;99.90;;;;;;4974661;28;20681;-72
2022/02/19 15:18:13;;;;;;;3.60;0.70;;;9.00;99.90;;;;;;4974774;28;20636;-69
2022/02/19 15:20:39;;;;;;;3.03;1.00;;;8.90;99.90;;;;;;4974254;28;20519;-72
2022/02/19 15:23:04;;;;;;;2.40;0.80;;;8.90;99.90;;;;;;4974475;28;20246;-71
2022/02/19 15:25:30;;;;;;;11.30;0.87;;;8.90;99.90;;;;;;4974573;28;20184;-71
2022/02/19 15:27:55;;;;;;;2.63;1.30;;;9.00;99.90;;;;;;4974646;28;20197;-71
2022/02/19 15:30:21;;;;;;;4.40;1.37;;;9.00;99.90;;;;;;4974635;28;20180;-71
2022/02/19 15:32:47;;;;;;;2.97;0.80;;;9.00;99.90;;;;;;4973955;28;20269;-70
2022/02/19 15:35:13;;;;;;;1.73;0.70;;;8.90;99.90;;;;;;4974574;28;20178;-71
2022/02/19 15:37:38;;;;;;;2.87;0.60;;;8.80;99.90;;;;;;4973870;28;20437;-70
2022/02/19 15:40:05;;;;;;;7.40;1.00;;;8.70;99.90;;;;;;4972885;28;20414;-70
2022/02/19 15:42:31;;;;;;;2.30;0.80;;;8.70;99.90;;;;;;4974069;28;20222;-71
2022/02/19 15:44:58;;;;;;;3.13;0.50;;;8.70;99.90;;;;;;4974153;28;20772;-70
2022/02/19 15:47:23;;;;;;;1.63;0.60;;;8.60;99.90;;;;;;4974246;28;20525;-70
2022/02/19 15:49:49;;;;;;;2.73;1.20;;;8.60;99.90;;;;;;4972635;28;20853;-71
2022/02/19 15:52:15;;;;;;;3.70;1.00;;;8.50;99.90;;;;;;4973980;28;20766;-71
2022/02/19 15:54:40;;;;;;;3.50;0.73;;;8.50;99.90;;;;;;4973654;28;20537;-71
2022/02/19 15:57:06;;;;;;;2.77;1.10;;;8.50;99.90;;;;;;4974004;28;20186;-71
2022/02/19 15:59:32;;;;;;;0.97;0.70;;;8.40;99.90;;;;;;4974074;28;20219;-72
2022/02/19 16:01:57;;;;;;;2.67;0.83;;;8.30;99.90;;;;;;4973720;28;20210;-71
2022/02/19 16:04:24;;;;;;;5.50;0.80;;;8.40;99.90;;;;;;4973759;28;20192;-72
2022/02/19 16:06:49;;;;;;;3.00;0.80;;;8.30;99.90;;;;;;4973795;28;20181;-71
2022/02/19 16:09:15;;;;;;;1.83;0.80;;;8.20;99.90;;;;;;4973930;28;20416;-71
2022/02/19 16:11:43;;;;;;;2.03;0.80;;;8.10;99.90;;;;;;4973344;28;20296;-71
2022/02/19 16:14:11;;;;;;;2.37;1.00;;;8.10;99.90;;;;;;4973264;28;20253;-71
2022/02/19 16:16:38;;;;;;;2.20;0.90;;;8.10;99.90;;;;;;4973613;28;20524;-71
2022/02/19 16:19:04;;;;;;;1.93;0.80;;;8.00;99.90;;;;;;4973777;28;20787;-71
2022/02/19 16:21:31;;;;;;;3.17;1.23;;;8.00;99.90;;;;;;4973487;28;20449;-71
2022/02/19 16:23:56;;;;;;;2.30;0.97;;;8.00;99.90;;;;;;4973390;28;20184;-70
2022/02/19 16:26:22;;;;;;;4.23;1.40;;;8.00;99.90;;;;;;4973476;28;20953;-71
2022/02/19 16:28:47;;;;;;;4.73;1.23;;;8.00;99.90;;;;;;4973323;28;20705;-71
2022/02/19 16:31:13;;;;;;;2.10;0.83;;;8.00;99.90;;;;;;4973150;28;20241;-72
2022/02/19 16:33:40;;;;;;;9.60;5.30;;;8.00;99.90;;;;;;4971643;28;20215;-71
2022/02/19 16:36:06;;;;;;;3.47;1.73;;;7.90;99.90;;;;;;4973380;28;20178;-71
2022/02/19 16:38:32;;;;;;;7.87;1.60;;;7.80;99.90;;;;;;4973189;28;20902;-70
2022/02/19 16:40:58;;;;;;;5.20;2.63;;;7.80;99.90;;;;;;4972976;28;20499;-71
2022/02/19 16:43:24;;;;;;;9.20;3.70;;;7.70;99.90;;;;;;4973046;28;20456;-71
2022/02/19 16:45:50;;;;;;;7.90;5.50;;;7.60;99.90;;;;;;4973083;28;20195;-73
2022/02/19 16:48:16;;;;;;;5.40;2.60;;;7.50;99.90;;;;;;4973328;28;20178;-72
2022/02/19 16:50:42;;;;;;;4.47;1.57;;;7.40;99.90;;;;;;4972450;28;20475;-72
2022/02/19 16:53:08;;;;;;;6.60;3.20;;;7.40;99.90;;;;;;4972837;28;20919;-71
2022/02/19 16:55:34;;;;;;;10.07;2.23;;;7.30;99.90;;;;;;4972869;28;20508;-72
2022/02/19 16:58:00;;;;;;;5.27;2.00;;;7.20;99.90;;;;;;4972936;28;20490;-71
2022/02/19 17:00:26;;;;;;;6.93;1.60;;;7.10;99.90;;;;;;4972926;28;20813;-72
2022/02/19 17:02:53;;;;;;;2.25;1.00;;;7.10;99.90;;;;;;4971545;28;20501;-72
2022/02/19 17:05:19;;;;;;;3.90;1.20;;;7.00;99.90;;;;;;4973055;28;20225;-71
2022/02/19 17:07:44;;;;;;;5.03;1.43;;;6.90;99.90;;;;;;4972806;28;20418;-71
2022/02/19 17:10:10;;;;;;;2.63;1.13;;;6.80;99.90;;;;;;4973106;28;20440;-71
2022/02/19 17:12:36;;;;;;;4.50;1.20;;;6.80;99.90;;;;;;4972403;28;20227;-72
2022/02/19 17:15:02;;;;;;;5.83;1.10;;;6.80;99.90;;;;;;4972643;28;20592;-73
2022/02/19 17:17:28;;;;;;;2.83;1.07;;;6.70;99.90;;;;;;4973039;28;20172;-73
2022/02/19 17:19:54;;;;;;;1.73;1.00;;;6.70;99.90;;;;;;4972668;28;20500;-74
2022/02/19 17:22:20;;;;;;;6.77;1.03;;;6.70;99.90;;;;;;4972715;28;20892;-73
2022/02/19 17:24:45;;;;;;;2.87;0.80;;;6.70;99.90;;;;;;4972569;28;20251;-73
2022/02/19 17:27:11;;;;;;;3.23;1.80;;;6.60;99.90;;;;;;4957458;28;20249;-73
2022/02/19 17:29:36;;;;;;;4.47;2.40;;;6.50;99.90;;;;;;4962183;28;20271;-71
2022/02/19 17:32:02;;;;;;;3.63;1.77;;;6.50;99.90;;;;;;4971797;28;20485;-73
2022/02/19 17:34:28;;;;;;;4.20;3.10;;;6.40;99.90;;;;;;4972169;28;20224;-73
2022/02/19 17:36:54;;;;;;;4.70;3.50;;;6.40;99.90;;;;;;4971981;28;20472;-72